Helena, Illinois
Current Conditions -  °F | °C
As of 1:53 AM on Saturday 25 Oct 2014 (Local Time) from KLWV Reporting Station
Haze Haze  
Wind Chill: 12°   Ceiling: 4400
Heat Index: 12°   Visibility: 6mi
Dew Point: 11°   Wind: 3mph
Humidity: 93%   Direction: 180°S
Pressure: 30.01"   Gusts: NA
Location:  38.793°N, 87.8326°W
Report Text: KLWV 250653Z AUTO 18003KT 6SM BR OVC044 12/11 A3001 RMK AO2 SLP163 T01170106
Loading
Personal Weather Stations






























Interactive Weather Map
Tropical Storm Tracking
New forecast layout! Learn more

10-Day Weather Forecast

Advertisements
Track Severe Weather on mobile